Time;durP1;ratioP1;P1;durP2;ratioP2;P2;SDS_P1;SDS_P2;PMS_P1;PMS_P2;Temp;Humidity;BMP_temperature;BMP_pressure;BME280_temperature;BME280_humidity;BME280_pressure;Samples;Min_cycle;Max_cycle;Signal;HPM_P1;HPM_P2
2023/05/09 00:01:47;;;;;;;29.77;16.75;;;;;;;;;;5012617;28;20050;-81
2023/05/09 00:04:34;;;;;;;26.00;15.75;;;;;;;;;;5013013;28;20041;-83
2023/05/09 00:07:19;;;;;;;26.55;16.42;;;;;;;;;;5018348;28;20053;-81
2023/05/09 00:10:05;;;;;;;24.48;16.02;;;;;;;;;;5012936;28;20480;-84
2023/05/09 00:12:51;;;;;;;23.27;15.55;;;;;;;;;;5013069;28;20396;-81
2023/05/09 00:15:36;;;;;;;26.73;15.52;;;;;;;;;;5013508;28;20050;-84
2023/05/09 00:18:22;;;;;;;26.50;15.70;;;;;;;;;;5008180;28;20050;-82
2023/05/09 00:21:10;;;;;;;27.67;15.00;;;;;;;;;;5016375;28;20046;-84
2023/05/09 00:23:55;;;;;;;21.42;14.15;;;;;;;;;;5022049;28;20041;-81
2023/05/09 00:26:41;;;;;;;25.45;15.73;;;;;;;;;;5016565;28;20046;-81
2023/05/09 00:29:26;;;;;;;20.27;13.63;;;;;;;;;;5016311;28;20487;-81
2023/05/09 00:32:12;;;;;;;22.90;14.60;;;;;;;;;;5016271;28;20046;-83
2023/05/09 00:34:57;;;;;;;24.58;14.60;;;;;;;;;;5016290;28;20041;-84
2023/05/09 00:37:42;;;;;;;23.75;14.73;;;;;;;;;;5014736;28;20042;-81
2023/05/09 00:40:28;;;;;;;24.23;14.00;;;;;;;;;;5016371;28;20493;-83
2023/05/09 00:43:15;;;;;;;24.38;14.68;;;;;;;;;;5007802;28;20042;-82
2023/05/09 00:46:00;;;;;;;24.42;14.20;;;;;;;;;;5016985;28;20068;-81
2023/05/09 00:48:46;;;;;;;23.92;14.43;;;;;;;;;;5021802;28;20045;-82
2023/05/09 00:51:32;;;;;;;20.70;13.35;;;;;;;;;;5015637;28;20046;-81
2023/05/09 00:54:17;;;;;;;27.35;15.80;;;;;;;;;;5021393;28;20046;-80
2023/05/09 00:57:03;;;;;;;23.77;14.88;;;;;;;;;;5015616;28;20042;-82
2023/05/09 00:59:57;;;;;;;24.73;15.52;;;;;;;;;;5021160;28;20042;-82
2023/05/09 01:03:00;;;;;;;23.83;14.90;;;;;;;;;;5021236;28;20054;-81
2023/05/09 01:06:00;;;;;;;25.10;15.90;;;;;;;;;;5015480;28;20049;-80
2023/05/09 01:08:51;;;;;;;;;;;;;;;;;;5015019;28;20049;-82
2023/05/09 01:11:54;;;;;;;27.55;14.98;;;;;;;;;;5012459;28;19913;-81
2023/05/09 01:15:00;;;;;;;23.95;14.77;;;;;;;;;;5020420;28;20487;-83
2023/05/09 01:18:04;;;;;;;21.27;13.88;;;;;;;;;;5019799;28;20045;-81
2023/05/09 01:21:09;;;;;;;25.05;13.73;;;;;;;;;;5015392;28;20050;-81
2023/05/09 01:24:07;;;;;;;22.70;14.80;;;;;;;;;;5015066;28;20034;-82
2023/05/09 01:27:05;;;;;;;23.50;13.75;;;;;;;;;;5019071;28;20452;-83
2023/05/09 01:29:56;;;;;;;27.27;14.73;;;;;;;;;;5015045;28;20507;-81
2023/05/09 01:32:42;;;;;;;25.00;14.10;;;;;;;;;;5020895;28;20046;-84
2023/05/09 01:35:32;;;;;;;25.73;13.77;;;;;;;;;;5020820;28;20045;-82
2023/05/09 01:38:24;;;;;;;23.45;13.55;;;;;;;;;;5014702;28;20053;-83
2023/05/09 01:41:13;;;;;;;22.23;13.85;;;;;;;;;;5014723;28;20050;-81
2023/05/09 01:44:02;;;;;;;20.73;12.52;;;;;;;;;;5014745;28;20041;-82
2023/05/09 01:46:49;;;;;;;20.15;13.07;;;;;;;;;;5013773;28;20054;-84
2023/05/09 01:49:37;;;;;;;19.67;12.88;;;;;;;;;;5020266;28;20045;-84
2023/05/09 01:52:24;;;;;;;21.23;13.15;;;;;;;;;;5020147;28;20057;-82
2023/05/09 01:55:10;;;;;;;18.25;12.73;;;;;;;;;;5014755;28;20496;-83
2023/05/09 01:57:58;;;;;;;20.60;13.25;;;;;;;;;;5014274;28;20038;-83
2023/05/09 02:00:45;;;;;;;20.85;13.20;;;;;;;;;;5020283;28;20049;-82
2023/05/09 02:03:33;;;;;;;23.15;13.65;;;;;;;;;;5020281;28;20037;-82
2023/05/09 02:06:21;;;;;;;21.23;13.18;;;;;;;;;;5019835;28;20046;-83
2023/05/09 02:09:07;;;;;;;25.17;13.63;;;;;;;;;;5020035;28;20041;-82
2023/05/09 02:11:53;;;;;;;24.20;14.57;;;;;;;;;;5019652;28;20046;-82
2023/05/09 02:14:38;;;;;;;24.60;14.93;;;;;;;;;;5006120;28;20483;-81
2023/05/09 02:17:23;;;;;;;23.48;15.68;;;;;;;;;;5014332;28;20042;-82
2023/05/09 02:20:10;;;;;;;20.83;14.77;;;;;;;;;;5013847;28;20049;-83
2023/05/09 02:22:56;;;;;;;23.63;15.40;;;;;;;;;;5019808;28;20050;-82
2023/05/09 02:25:42;;;;;;;23.70;15.13;;;;;;;;;;5014247;28;20046;-79
2023/05/09 02:28:29;;;;;;;24.38;15.77;;;;;;;;;;5019277;28;20045;-80
2023/05/09 02:31:18;;;;;;;25.40;16.27;;;;;;;;;;5019745;28;20045;-81
2023/05/09 02:34:04;;;;;;;24.38;16.17;;;;;;;;;;5019373;28;20037;-81
2023/05/09 02:36:50;;;;;;;26.90;16.40;;;;;;;;;;5014217;28;20042;-81
2023/05/09 02:39:36;;;;;;;25.13;16.42;;;;;;;;;;5012583;28;20046;-81
2023/05/09 02:42:27;;;;;;;26.45;16.77;;;;;;;;;;5019348;28;20058;-80
2023/05/09 02:45:12;;;;;;;26.05;17.05;;;;;;;;;;5017352;28;20408;-80
2023/05/09 02:47:58;;;;;;;27.77;17.52;;;;;;;;;;5019243;28;20037;-83
2023/05/09 02:50:44;;;;;;;30.60;18.05;;;;;;;;;;5019300;28;20042;-81
2023/05/09 02:53:30;;;;;;;27.55;16.63;;;;;;;;;;5018609;28;20404;-82
2023/05/09 02:56:16;;;;;;;27.25;16.45;;;;;;;;;;5018511;28;20041;-82
2023/05/09 02:59:01;;;;;;;26.15;16.15;;;;;;;;;;5012630;28;20488;-82
2023/05/09 03:01:46;;;;;;;27.70;16.02;;;;;;;;;;5012566;28;20041;-81
2023/05/09 03:04:33;;;;;;;23.45;15.38;;;;;;;;;;5012306;28;20049;-82
2023/05/09 03:07:18;;;;;;;24.17;15.32;;;;;;;;;;5019262;28;20046;-81
2023/05/09 03:10:04;;;;;;;26.27;15.95;;;;;;;;;;5018724;28;20042;-80
2023/05/09 03:12:50;;;;;;;22.83;15.52;;;;;;;;;;5013338;28;20042;-83
2023/05/09 03:15:35;;;;;;;29.00;16.45;;;;;;;;;;5018924;28;20041;-82
2023/05/09 03:18:21;;;;;;;25.73;15.18;;;;;;;;;;5018275;28;20050;-81
2023/05/09 03:21:07;;;;;;;24.08;15.52;;;;;;;;;;5013432;28;20053;-82
2023/05/09 03:23:55;;;;;;;24.33;15.40;;;;;;;;;;5018873;28;20042;-82
2023/05/09 03:26:40;;;;;;;26.52;16.73;;;;;;;;;;5013028;28;20049;-81
2023/05/09 03:29:26;;;;;;;25.13;16.08;;;;;;;;;;5013168;28;20046;-81
2023/05/09 03:32:12;;;;;;;27.00;15.48;;;;;;;;;;5018630;28;20046;-81
2023/05/09 03:34:58;;;;;;;23.63;16.27;;;;;;;;;;5013107;28;20050;-82
2023/05/09 03:37:46;;;;;;;24.45;15.90;;;;;;;;;;5018300;28;20403;-83
2023/05/09 03:40:31;;;;;;;23.77;16.25;;;;;;;;;;5018446;28;20046;-82
2023/05/09 03:43:24;;;;;;;24.88;15.13;;;;;;;;;;5018721;28;20050;-82
2023/05/09 03:46:09;;;;;;;28.42;15.95;;;;;;;;;;5013734;28;20034;-83
2023/05/09 03:48:55;;;;;;;28.52;16.08;;;;;;;;;;5018617;28;20042;-81
2023/05/09 03:51:40;;;;;;;27.65;16.08;;;;;;;;;;5015733;28;20041;-83
2023/05/09 03:54:29;;;;;;;26.02;16.13;;;;;;;;;;5022374;28;20046;-83
2023/05/09 03:57:13;;;;;;;30.50;16.48;;;;;;;;;;5022183;28;20479;-83
2023/05/09 03:59:59;;;;;;;26.75;16.95;;;;;;;;;;5022581;28;20046;-83
2023/05/09 04:02:45;;;;;;;29.35;15.98;;;;;;;;;;5016615;28;20042;-81
2023/05/09 04:05:40;;;;;;;27.17;17.38;;;;;;;;;;5022380;28;20400;-82
2023/05/09 04:08:31;;;;;;;27.10;16.88;;;;;;;;;;5022144;28;20042;-82
2023/05/09 04:11:17;;;;;;;24.52;16.13;;;;;;;;;;5022368;28;20479;-83
2023/05/09 04:14:05;;;;;;;28.95;16.88;;;;;;;;;;5022358;28;20046;-82
2023/05/09 04:16:54;;;;;;;26.77;16.30;;;;;;;;;;5021998;28;20045;-83
2023/05/09 04:19:39;;;;;;;27.27;16.58;;;;;;;;;;5022139;28;20049;-83
2023/05/09 04:22:25;;;;;;;25.40;16.20;;;;;;;;;;5021675;28;20046;-83
2023/05/09 04:25:11;;;;;;;21.73;14.55;;;;;;;;;;5008052;28;20480;-82
2023/05/09 04:27:57;;;;;;;24.92;15.82;;;;;;;;;;5008196;28;20043;-83
2023/05/09 04:30:43;;;;;;;24.33;15.68;;;;;;;;;;5015955;28;20046;-82
2023/05/09 04:33:28;;;;;;;24.88;15.25;;;;;;;;;;5021429;28;20400;-82
2023/05/09 04:36:18;;;;;;;27.92;16.08;;;;;;;;;;5021388;28;20407;-83
2023/05/09 04:39:07;;;;;;;26.42;15.85;;;;;;;;;;5021264;28;20054;-82
2023/05/09 04:41:53;;;;;;;28.58;17.00;;;;;;;;;;5022943;28;20049;-82
2023/05/09 04:44:39;;;;;;;29.05;17.52;;;;;;;;;;5021101;28;20476;-81
2023/05/09 04:47:25;;;;;;;29.00;16.42;;;;;;;;;;5021704;28;20042;-84
2023/05/09 04:50:11;;;;;;;31.77;15.98;;;;;;;;;;5021491;28;20050;-84
2023/05/09 04:52:56;;;;;;;25.42;15.95;;;;;;;;;;5014543;28;20046;-84
2023/05/09 04:55:42;;;;;;;29.75;17.23;;;;;;;;;;5007928;28;20045;-85
2023/05/09 04:58:30;;;;;;;27.35;18.27;;;;;;;;;;5021167;28;20045;-84
2023/05/09 05:01:18;;;;;;;28.88;18.23;;;;;;;;;;5021059;28;20049;-83
2023/05/09 05:04:03;;;;;;;33.53;18.67;;;;;;;;;;5020375;28;20033;-84
2023/05/09 05:06:50;;;;;;;35.83;20.52;;;;;;;;;;5020566;28;20050;-84
2023/05/09 05:09:36;;;;;;;34.90;18.80;;;;;;;;;;5014516;28;20049;-83
2023/05/09 05:12:21;;;;;;;31.83;18.90;;;;;;;;;;5020752;28;20050;-83
2023/05/09 05:15:07;;;;;;;35.13;20.30;;;;;;;;;;5014983;28;20050;-83
2023/05/09 05:17:53;;;;;;;33.92;18.70;;;;;;;;;;5020920;28;20430;-83
2023/05/09 05:20:42;;;;;;;32.10;20.08;;;;;;;;;;5020759;28;20487;-83
2023/05/09 05:23:28;;;;;;;32.70;20.95;;;;;;;;;;5015357;28;20037;-82
2023/05/09 05:26:14;;;;;;;35.25;20.38;;;;;;;;;;5020459;28;20483;-83
2023/05/09 05:29:00;;;;;;;29.85;19.75;;;;;;;;;;5020535;28;20487;-83
2023/05/09 05:31:45;;;;;;;33.88;20.23;;;;;;;;;;5015154;28;20042;-82
2023/05/09 05:34:31;;;;;;;31.20;18.83;;;;;;;;;;5020184;28;20046;-82
2023/05/09 05:37:17;;;;;;;28.13;18.38;;;;;;;;;;5020213;28;20038;-81
2023/05/09 05:40:02;;;;;;;26.63;16.60;;;;;;;;;;5020278;28;20046;-82
2023/05/09 05:42:48;;;;;;;26.63;17.52;;;;;;;;;;5020071;28;20484;-82
2023/05/09 05:45:34;;;;;;;24.15;16.48;;;;;;;;;;5014573;28;20042;-82
2023/05/09 05:48:23;;;;;;;31.40;17.67;;;;;;;;;;5019288;28;20046;-84
2023/05/09 05:51:09;;;;;;;24.95;16.73;;;;;;;;;;5020037;28;20487;-83
2023/05/09 05:53:56;;;;;;;25.05;16.67;;;;;;;;;;5020234;28;20072;-81
2023/05/09 05:56:42;;;;;;;30.38;17.73;;;;;;;;;;5020212;28;20038;-81
2023/05/09 05:59:29;;;;;;;25.10;16.63;;;;;;;;;;5014186;28;20045;-81
2023/05/09 06:02:17;;;;;;;30.60;17.75;;;;;;;;;;5018663;28;20038;-84
2023/05/09 06:05:03;;;;;;;31.52;17.42;;;;;;;;;;5017435;28;20042;-81
2023/05/09 06:07:48;;;;;;;27.38;18.45;;;;;;;;;;5011036;28;20046;-82
2023/05/09 06:10:34;;;;;;;25.33;16.63;;;;;;;;;;5012292;28;20054;-82
2023/05/09 06:13:19;;;;;;;26.38;16.17;;;;;;;;;;5017195;28;20046;-82
2023/05/09 06:16:10;;;;;;;30.48;17.40;;;;;;;;;;5017774;28;20034;-82
2023/05/09 06:18:55;;;;;;;25.40;16.55;;;;;;;;;;5017768;28;20415;-84
2023/05/09 06:21:40;;;;;;;24.77;16.83;;;;;;;;;;5012368;28;20034;-84
2023/05/09 06:24:25;;;;;;;26.55;17.08;;;;;;;;;;5020038;28;20045;-82
2023/05/09 06:27:11;;;;;;;26.67;18.48;;;;;;;;;;5020249;28;20042;-80
2023/05/09 06:29:57;;;;;;;26.48;17.40;;;;;;;;;;5014680;28;20388;-83
2023/05/09 06:32:42;;;;;;;25.55;16.23;;;;;;;;;;5014467;28;20041;-84
2023/05/09 06:35:28;;;;;;;22.75;14.13;;;;;;;;;;5014172;28;20491;-82
2023/05/09 06:38:13;;;;;;;21.38;12.55;;;;;;;;;;5012887;28;20053;-81
2023/05/09 06:40:59;;;;;;;25.63;12.55;;;;;;;;;;5014006;28;20046;-83
2023/05/09 06:43:44;;;;;;;16.90;10.85;;;;;;;;;;5014079;28;20046;-80
2023/05/09 06:46:30;;;;;;;14.60;9.65;;;;;;;;;;5013580;28;20423;-80
2023/05/09 06:49:16;;;;;;;13.77;8.70;;;;;;;;;;5015018;28;20050;-82
2023/05/09 06:52:01;;;;;;;15.00;9.30;;;;;;;;;;5016296;28;20479;-85
2023/05/09 06:54:46;;;;;;;11.07;8.27;;;;;;;;;;5016919;28;20038;-82
2023/05/09 06:57:31;;;;;;;11.05;8.38;;;;;;;;;;5017823;28;20045;-82
2023/05/09 07:00:17;;;;;;;15.75;8.10;;;;;;;;;;5017740;28;20499;-82
2023/05/09 07:03:03;;;;;;;11.88;7.95;;;;;;;;;;5017621;28;20587;-82
2023/05/09 07:05:48;;;;;;;16.77;9.07;;;;;;;;;;5023321;28;20045;-83
2023/05/09 07:08:34;;;;;;;14.98;8.95;;;;;;;;;;5016124;28;20041;-80
2023/05/09 07:11:20;;;;;;;10.95;8.60;;;;;;;;;;5013582;28;20042;-84
2023/05/09 07:14:05;;;;;;;15.50;9.88;;;;;;;;;;5018922;28;20046;-84
2023/05/09 07:16:50;;;;;;;12.45;8.80;;;;;;;;;;5013672;28;20038;-80
2023/05/09 07:19:35;;;;;;;17.08;8.57;;;;;;;;;;5013322;28;20041;-80
2023/05/09 07:22:21;;;;;;;15.32;8.95;;;;;;;;;;5013464;28;20042;-83
2023/05/09 07:25:07;;;;;;;14.13;8.60;;;;;;;;;;5012952;28;20488;-83
2023/05/09 07:27:53;;;;;;;10.85;6.95;;;;;;;;;;5013304;28;20054;-83
2023/05/09 07:30:39;;;;;;;14.23;8.40;;;;;;;;;;5013568;28;20038;-83
2023/05/09 07:33:24;;;;;;;14.70;9.50;;;;;;;;;;5013328;28;20054;-83
2023/05/09 07:36:15;;;;;;;16.10;9.73;;;;;;;;;;5012953;28;20049;-82
2023/05/09 07:39:00;;;;;;;14.05;8.93;;;;;;;;;;5013336;28;20053;-83
2023/05/09 07:41:46;;;;;;;12.88;9.30;;;;;;;;;;5013153;28;20049;-83
2023/05/09 07:44:31;;;;;;;17.17;9.30;;;;;;;;;;5012597;28;20046;-82
2023/05/09 07:47:17;;;;;;;12.95;8.70;;;;;;;;;;5012973;28;20054;-83
2023/05/09 07:50:03;;;;;;;11.57;8.68;;;;;;;;;;5012039;28;20049;-80
2023/05/09 07:52:48;;;;;;;12.85;8.43;;;;;;;;;;5013545;28;20046;-80
2023/05/09 07:55:34;;;;;;;12.60;8.77;;;;;;;;;;5013742;28;20053;-83
2023/05/09 07:58:20;;;;;;;11.57;8.80;;;;;;;;;;5013364;28;20050;-81
2023/05/09 08:01:05;;;;;;;14.02;8.32;;;;;;;;;;5018697;28;20038;-81
2023/05/09 08:03:50;;;;;;;11.05;8.13;;;;;;;;;;5012049;28;20049;-82
2023/05/09 08:06:36;;;;;;;14.35;8.02;;;;;;;;;;5013551;28;20042;-82
2023/05/09 08:09:22;;;;;;;9.95;6.05;;;;;;;;;;5018828;28;20046;-82
2023/05/09 08:12:07;;;;;;;10.48;6.05;;;;;;;;;;5012832;28;20053;-84
2023/05/09 08:14:53;;;;;;;9.82;6.78;;;;;;;;;;5012734;28;20046;-81
2023/05/09 08:17:39;;;;;;;11.60;7.30;;;;;;;;;;5014052;28;20042;-80
2023/05/09 08:20:24;;;;;;;12.75;7.55;;;;;;;;;;5015370;28;20050;-80
2023/05/09 08:23:13;;;;;;;20.45;10.10;;;;;;;;;;5014135;28;20038;-81
2023/05/09 08:25:58;;;;;;;8.60;6.35;;;;;;;;;;5013500;28;20046;-78
2023/05/09 08:28:44;;;;;;;10.07;7.03;;;;;;;;;;5013233;28;20050;-76
2023/05/09 08:31:29;;;;;;;10.98;6.78;;;;;;;;;;5012080;28;20499;-76
2023/05/09 08:34:15;;;;;;;8.38;5.38;;;;;;;;;;5013011;28;20399;-76
2023/05/09 08:37:01;;;;;;;8.38;5.45;;;;;;;;;;5020315;28;20049;-77
2023/05/09 08:39:46;;;;;;;8.25;5.53;;;;;;;;;;5016588;28;20041;-76
2023/05/09 08:42:35;;;;;;;9.45;6.57;;;;;;;;;;5016508;28;20479;-77
2023/05/09 08:45:27;;;;;;;9.48;5.70;;;;;;;;;;5016138;28;20046;-76
2023/05/09 08:48:15;;;;;;;6.38;3.97;;;;;;;;;;5016594;28;20046;-76
2023/05/09 08:51:01;;;;;;;5.40;3.53;;;;;;;;;;5016627;28;20038;-77
2023/05/09 08:53:46;;;;;;;5.90;4.53;;;;;;;;;;5016473;28;20045;-77
2023/05/09 08:56:35;;;;;;;11.27;4.18;;;;;;;;;;5023160;28;20037;-75
2023/05/09 08:59:24;;;;;;;7.57;4.00;;;;;;;;;;5015096;28;20046;-76
2023/05/09 09:02:13;;;;;;;5.75;3.33;;;;;;;;;;5016222;28;20042;-76
2023/05/09 09:04:58;;;;;;;4.00;2.90;;;;;;;;;;5016561;28;20046;-77
2023/05/09 09:07:45;;;;;;;4.78;3.17;;;;;;;;;;5016569;28;20054;-76
2023/05/09 09:10:31;;;;;;;6.50;3.03;;;;;;;;;;5016397;28;20050;-76
2023/05/09 09:13:18;;;;;;;8.63;5.10;;;;;;;;;;5015198;28;20042;-77
2023/05/09 09:16:03;;;;;;;7.53;2.95;;;;;;;;;;5022721;28;20046;-75
2023/05/09 09:18:52;;;;;;;7.50;4.88;;;;;;;;;;5015850;28;20045;-78
2023/05/09 09:21:40;;;;;;;4.53;2.88;;;;;;;;;;5015744;28;20037;-78
2023/05/09 09:24:26;;;;;;;3.92;3.00;;;;;;;;;;5015902;28;20046;-77
2023/05/09 09:27:11;;;;;;;4.43;2.60;;;;;;;;;;5015907;28;20046;-78
2023/05/09 09:30:11;;;;;;;7.85;2.80;;;;;;;;;;5016340;28;20049;-77
2023/05/09 09:32:59;;;;;;;5.40;3.17;;;;;;;;;;5015770;28;20049;-74
2023/05/09 09:35:46;;;;;;;3.17;2.40;;;;;;;;;;5015796;28;20042;-78
2023/05/09 09:38:45;;;;;;;6.68;2.92;;;;;;;;;;5016129;28;20049;-77
2023/05/09 09:41:36;;;;;;;5.50;4.05;;;;;;;;;;5015570;28;20045;-76
2023/05/09 09:44:22;;;;;;;2.92;2.40;;;;;;;;;;5015583;28;20046;-78
2023/05/09 09:47:09;;;;;;;4.32;3.35;;;;;;;;;;5015473;28;20423;-77
2023/05/09 09:49:54;;;;;;;5.85;2.90;;;;;;;;;;5014729;28;20050;-75
2023/05/09 09:52:50;;;;;;;10.45;2.88;;;;;;;;;;5015789;28;20046;-75
2023/05/09 09:55:36;;;;;;;5.25;2.45;;;;;;;;;;5015570;28;20046;-76
2023/05/09 09:58:23;;;;;;;3.88;2.60;;;;;;;;;;5015331;28;20488;-78
2023/05/09 10:01:15;;;;;;;7.53;3.00;;;;;;;;;;5014537;28;20046;-76
2023/05/09 10:04:02;;;;;;;4.40;2.63;;;;;;;;;;5015189;28;20046;-77
2023/05/09 10:06:52;;;;;;;5.03;2.60;;;;;;;;;;5015273;28;20045;-77
2023/05/09 10:09:37;;;;;;;5.13;2.83;;;;;;;;;;5015220;28;20046;-76
2023/05/09 10:12:22;;;;;;;3.38;2.63;;;;;;;;;;5015039;28;20495;-77
2023/05/09 10:15:09;;;;;;;3.42;2.88;;;;;;;;;;5014948;28;20038;-75
2023/05/09 10:18:00;;;;;;;3.40;2.70;;;;;;;;;;5015309;28;20054;-75
2023/05/09 10:20:45;;;;;;;5.38;2.97;;;;;;;;;;5015135;28;20395;-75
2023/05/09 10:23:35;;;;;;;5.15;2.97;;;;;;;;;;5021318;28;20041;-77
2023/05/09 10:26:27;;;;;;;4.22;2.55;;;;;;;;;;5014858;28;20046;-76
2023/05/09 10:29:21;;;;;;;4.45;3.13;;;;;;;;;;5015266;28;20484;-77
2023/05/09 10:32:22;;;;;;;4.90;2.90;;;;;;;;;;5014777;28;20038;-77
2023/05/09 10:35:10;;;;;;;5.90;2.80;;;;;;;;;;5014699;28;20041;-79
2023/05/09 10:37:56;;;;;;;5.22;3.38;;;;;;;;;;5014566;28;20042;-78
2023/05/09 10:40:46;;;;;;;5.15;2.95;;;;;;;;;;5014942;28;20045;-76
2023/05/09 10:43:32;;;;;;;7.28;3.10;;;;;;;;;;5014774;28;20042;-78
2023/05/09 10:46:18;;;;;;;5.63;2.88;;;;;;;;;;5013881;28;20046;-77
2023/05/09 10:49:05;;;;;;;4.22;2.30;;;;;;;;;;5016090;28;20423;-77
2023/05/09 10:51:51;;;;;;;2.85;2.55;;;;;;;;;;5014347;28;20053;-79
2023/05/09 10:54:36;;;;;;;2.75;2.45;;;;;;;;;;5015195;28;20046;-75
2023/05/09 10:57:22;;;;;;;3.90;2.10;;;;;;;;;;5021569;28;20384;-75
2023/05/09 11:00:07;;;;;;;4.82;2.28;;;;;;;;;;5022690;28;20053;-76
2023/05/09 11:03:06;;;;;;;3.25;2.50;;;;;;;;;;5015216;28;20046;-77
2023/05/09 11:05:54;;;;;;;3.72;2.70;;;;;;;;;;5014089;28;20054;-77
2023/05/09 11:08:41;;;;;;;3.85;2.92;;;;;;;;;;5014334;28;20049;-76
2023/05/09 11:11:28;;;;;;;3.38;2.47;;;;;;;;;;5014302;28;20045;-74
2023/05/09 11:14:36;;;;;;;3.50;2.78;;;;;;;;;;5014504;28;20488;-77
2023/05/09 11:17:22;;;;;;;3.50;2.53;;;;;;;;;;5014043;28;20046;-78
2023/05/09 11:20:08;;;;;;;3.47;2.85;;;;;;;;;;5013746;28;20042;-76
2023/05/09 11:22:57;;;;;;;5.97;2.58;;;;;;;;;;5013382;28;20395;-79
2023/05/09 11:25:48;;;;;;;3.50;2.03;;;;;;;;;;5014081;28;20042;-76
2023/05/09 11:28:37;;;;;;;5.38;2.67;;;;;;;;;;5014073;28;20396;-79
2023/05/09 11:31:23;;;;;;;2.95;2.55;;;;;;;;;;5014050;28;20058;-77
2023/05/09 11:34:10;;;;;;;2.80;2.42;;;;;;;;;;5014373;28;20415;-78
2023/05/09 11:37:08;;;;;;;3.83;2.60;;;;;;;;;;5013267;28;20038;-77
2023/05/09 11:40:03;;;;;;;5.32;2.60;;;;;;;;;;5013394;28;20484;-78
2023/05/09 11:42:54;;;;;;;3.45;2.33;;;;;;;;;;5014188;28;20049;-76
2023/05/09 11:45:40;;;;;;;4.00;3.20;;;;;;;;;;5013540;28;20046;-77
2023/05/09 11:48:26;;;;;;;6.75;4.55;;;;;;;;;;5013541;28;20038;-77
2023/05/09 11:51:18;;;;;;;3.25;2.30;;;;;;;;;;5013823;28;20050;-77
2023/05/09 11:54:06;;;;;;;4.40;2.88;;;;;;;;;;5013528;28;20042;-77
2023/05/09 11:56:51;;;;;;;3.92;2.10;;;;;;;;;;5013723;28;20050;-75
2023/05/09 11:59:37;;;;;;;4.07;1.95;;;;;;;;;;5013515;28;20038;-77
2023/05/09 12:02:23;;;;;;;5.32;1.73;;;;;;;;;;5013640;28;20050;-77
2023/05/09 12:05:10;;;;;;;2.78;1.90;;;;;;;;;;5013467;28;20045;-77
2023/05/09 12:08:03;;;;;;;1.48;1.38;;;;;;;;;;5013249;28;20407;-76
2023/05/09 12:10:50;;;;;;;4.07;2.13;;;;;;;;;;5020155;28;20046;-75
2023/05/09 12:13:43;;;;;;;3.22;1.15;;;;;;;;;;5018647;28;20297;-75
2023/05/09 12:16:27;;;;;;;4.88;1.77;;;;;;;;;;5017060;28;20391;-79
2023/05/09 12:19:14;;;;;;;1.63;1.27;;;;;;;;;;5017502;28;20042;-77
2023/05/09 12:22:01;;;;;;;2.30;1.38;;;;;;;;;;5017013;28;20050;-77
2023/05/09 12:24:48;;;;;;;1.50;1.23;;;;;;;;;;5017118;28;20034;-76
2023/05/09 12:27:38;;;;;;;4.65;1.30;;;;;;;;;;5017236;28;20034;-74
2023/05/09 12:30:24;;;;;;;2.58;1.20;;;;;;;;;;5016934;28;20046;-74
2023/05/09 12:33:11;;;;;;;1.27;0.98;;;;;;;;;;5019162;28;20053;-76
2023/05/09 12:36:10;;;;;;;2.05;1.20;;;;;;;;;;5016768;28;20034;-76
2023/05/09 12:38:55;;;;;;;2.70;1.27;;;;;;;;;;5016849;28;20038;-76
2023/05/09 12:41:45;;;;;;;1.60;1.30;;;;;;;;;;5016928;28;20038;-76
2023/05/09 12:44:31;;;;;;;5.95;2.67;;;;;;;;;;5016691;28;20046;-81
2023/05/09 12:47:16;;;;;;;1.65;1.50;;;;;;;;;;5016911;28;20041;-78
2023/05/09 12:50:04;;;;;;;3.13;1.13;;;;;;;;;;5016744;28;20045;-76
2023/05/09 12:52:51;;;;;;;1.42;1.10;;;;;;;;;;5017200;28;20045;-77
2023/05/09 12:55:40;;;;;;;4.00;1.67;;;;;;;;;;5016757;28;20484;-77
2023/05/09 12:58:31;;;;;;;3.95;1.35;;;;;;;;;;5016329;28;20038;-80
2023/05/09 13:01:22;;;;;;;1.38;1.00;;;;;;;;;;5016407;28;20053;-78
2023/05/09 13:04:08;;;;;;;4.38;1.23;;;;;;;;;;5016506;28;20042;-79
2023/05/09 13:06:56;;;;;;;1.30;1.20;;;;;;;;;;5016682;28;20030;-79
2023/05/09 13:09:59;;;;;;;1.38;1.00;;;;;;;;;;5016132;28;20404;-80
2023/05/09 13:12:50;;;;;;;1.70;1.35;;;;;;;;;;5016140;28;20045;-78
2023/05/09 13:15:35;;;;;;;1.00;0.75;;;;;;;;;;5016488;28;20475;-78
2023/05/09 13:18:22;;;;;;;1.92;1.20;;;;;;;;;;5016326;28;20042;-78
2023/05/09 13:21:07;;;;;;;1.10;0.90;;;;;;;;;;5016122;28;20046;-79
2023/05/09 13:23:53;;;;;;;2.03;1.10;;;;;;;;;;5015853;28;20042;-79
2023/05/09 13:26:38;;;;;;;4.53;1.20;;;;;;;;;;5022104;28;20038;-79
2023/05/09 13:29:24;;;;;;;3.72;2.42;;;;;;;;;;5015995;28;20054;-80
2023/05/09 13:32:09;;;;;;;1.55;1.00;;;;;;;;;;5015847;28;20050;-78
2023/05/09 13:34:55;;;;;;;7.47;2.92;;;;;;;;;;5016092;28;20050;-79
2023/05/09 13:37:40;;;;;;;2.67;1.27;;;;;;;;;;5016088;28;20050;-79
2023/05/09 13:40:26;;;;;;;1.80;1.30;;;;;;;;;;5015290;28;20046;-79
2023/05/09 13:43:11;;;;;;;1.90;1.45;;;;;;;;;;5015906;28;20042;-80
2023/05/09 13:45:57;;;;;;;1.52;1.20;;;;;;;;;;5015139;28;20042;-78
2023/05/09 13:48:43;;;;;;;1.48;1.00;;;;;;;;;;5015601;28;20037;-78
2023/05/09 13:51:28;;;;;;;2.15;1.20;;;;;;;;;;5015307;28;20049;-77
2023/05/09 13:54:16;;;;;;;3.50;1.30;;;;;;;;;;5015367;28;20480;-77
2023/05/09 13:57:02;;;;;;;0.90;0.90;;;;;;;;;;5021257;28;20057;-77
2023/05/09 13:59:48;;;;;;;1.30;1.00;;;;;;;;;;5015116;28;20042;-80
2023/05/09 14:02:34;;;;;;;5.63;1.17;;;;;;;;;;5015375;28;20038;-77
2023/05/09 14:05:19;;;;;;;4.47;1.23;;;;;;;;;;5015484;28;20388;-77
2023/05/09 14:08:06;;;;;;;3.40;0.85;;;;;;;;;;5014983;28;20042;-76
2023/05/09 14:10:51;;;;;;;2.50;1.17;;;;;;;;;;5015296;28;20038;-77
2023/05/09 14:13:37;;;;;;;1.58;0.90;;;;;;;;;;5015289;28;20038;-79
2023/05/09 14:16:23;;;;;;;1.08;0.90;;;;;;;;;;5015233;28;20050;-78
2023/05/09 14:19:08;;;;;;;1.70;1.15;;;;;;;;;;5014918;28;20399;-78
2023/05/09 14:21:53;;;;;;;2.13;1.23;;;;;;;;;;5014819;28;20046;-78
2023/05/09 14:24:39;;;;;;;0.98;0.85;;;;;;;;;;5015005;28;20046;-75
2023/05/09 14:27:25;;;;;;;3.80;1.38;;;;;;;;;;5015006;28;20050;-77
2023/05/09 14:30:12;;;;;;;2.08;1.50;;;;;;;;;;5014743;28;20045;-77
2023/05/09 14:32:57;;;;;;;1.73;1.10;;;;;;;;;;5014697;28;20050;-81
2023/05/09 14:35:42;;;;;;;3.00;1.10;;;;;;;;;;5020625;28;20392;-78
2023/05/09 14:38:28;;;;;;;3.47;1.05;;;;;;;;;;5014565;28;20050;-77
2023/05/09 14:41:14;;;;;;;1.30;0.95;;;;;;;;;;5014668;28;20480;-77
2023/05/09 14:44:00;;;;;;;1.23;1.00;;;;;;;;;;5014662;28;20046;-77
2023/05/09 14:46:47;;;;;;;0.95;0.80;;;;;;;;;;5014060;28;20049;-78
2023/05/09 14:49:31;;;;;;;1.40;1.02;;;;;;;;;;5014399;28;20046;-78
2023/05/09 14:52:17;;;;;;;1.55;1.10;;;;;;;;;;5014662;28;20042;-78
2023/05/09 14:55:05;;;;;;;1.85;1.15;;;;;;;;;;5014210;28;20492;-78
2023/05/09 14:57:50;;;;;;;6.18;1.20;;;;;;;;;;5020834;28;20042;-79
2023/05/09 15:00:36;;;;;;;3.03;1.25;;;;;;;;;;5013832;28;20404;-78
2023/05/09 15:03:21;;;;;;;1.00;0.90;;;;;;;;;;5014244;28;20042;-77
2023/05/09 15:06:07;;;;;;;1.60;1.10;;;;;;;;;;5014128;28;20058;-78
2023/05/09 15:08:52;;;;;;;1.15;0.98;;;;;;;;;;5014719;28;20045;-78
2023/05/09 15:11:40;;;;;;;1.50;1.00;;;;;;;;;;5012742;28;20484;-78
2023/05/09 15:14:25;;;;;;;2.08;1.75;;;;;;;;;;5013450;28;20045;-77
2023/05/09 15:17:10;;;;;;;1.40;1.10;;;;;;;;;;5013510;28;20046;-78
2023/05/09 15:19:56;;;;;;;2.90;1.40;;;;;;;;;;5012771;28;20046;-78
2023/05/09 15:22:42;;;;;;;4.03;1.35;;;;;;;;;;5013412;28;20393;-77
2023/05/09 15:25:28;;;;;;;4.75;3.15;;;;;;;;;;5012729;28;20042;-78
2023/05/09 15:28:13;;;;;;;2.47;1.35;;;;;;;;;;5013066;28;20038;-77
2023/05/09 15:30:58;;;;;;;4.78;1.52;;;;;;;;;;5013021;28;20038;-77
2023/05/09 15:33:44;;;;;;;2.50;1.40;;;;;;;;;;5013116;28;20391;-78
2023/05/09 15:36:29;;;;;;;2.75;1.70;;;;;;;;;;5012846;28;20038;-78
2023/05/09 15:39:15;;;;;;;3.60;1.90;;;;;;;;;;5011579;28;20058;-80
2023/05/09 15:42:03;;;;;;;2.03;1.52;;;;;;;;;;5012792;28;20038;-76
2023/05/09 15:44:48;;;;;;;4.65;1.77;;;;;;;;;;5012743;28;20054;-78
2023/05/09 15:47:34;;;;;;;3.97;1.17;;;;;;;;;;5015647;28;20037;-78
2023/05/09 15:50:26;;;;;;;2.33;1.30;;;;;;;;;;5016860;28;20491;-79
2023/05/09 15:53:14;;;;;;;3.80;1.65;;;;;;;;;;5017081;28;20050;-79
2023/05/09 15:56:00;;;;;;;3.78;1.77;;;;;;;;;;5016900;28;20383;-76
2023/05/09 15:58:45;;;;;;;3.17;1.83;;;;;;;;;;5016554;28;20050;-77
2023/05/09 16:01:31;;;;;;;2.22;1.50;;;;;;;;;;5016572;28;20046;-77
2023/05/09 16:04:17;;;;;;;2.00;1.40;;;;;;;;;;5016431;28;20395;-79
2023/05/09 16:07:02;;;;;;;5.97;1.30;;;;;;;;;;5016367;28;20046;-78
2023/05/09 16:09:48;;;;;;;2.10;1.23;;;;;;;;;;5016395;28;20491;-75
2023/05/09 16:12:34;;;;;;;2.45;1.73;;;;;;;;;;5016301;28;20046;-77
2023/05/09 16:15:20;;;;;;;2.22;1.55;;;;;;;;;;5016130;28;20046;-76
2023/05/09 16:18:05;;;;;;;11.98;7.05;;;;;;;;;;5016120;28;20050;-76
2023/05/09 16:20:51;;;;;;;4.38;3.15;;;;;;;;;;5015713;28;20042;-78
2023/05/09 16:23:38;;;;;;;3.65;2.45;;;;;;;;;;5015980;28;20049;-77
2023/05/09 16:26:23;;;;;;;3.25;2.40;;;;;;;;;;5015377;28;20049;-77
2023/05/09 16:29:10;;;;;;;1.98;1.35;;;;;;;;;;5015108;28;20053;-77